Time;durP1;ratioP1;P1;durP2;ratioP2;P2;SDS_P1;SDS_P2;PMS_P1;PMS_P2;Temp;Humidity;BMP_temperature;BMP_pressure;BME280_temperature;BME280_humidity;BME280_pressure;Samples;Min_cycle;Max_cycle;Signal;HPM_P1;HPM_P2
2022/12/26 00:02:13;;;;;;;2.00;1.70;;;;;;;4.08;100.00;62420.88;5005232;28;20249;-78
2022/12/26 00:04:40;;;;;;;1.70;1.60;;;;;;;4.03;100.00;62413.72;5007401;28;20199;-77
2022/12/26 00:07:07;;;;;;;2.17;1.70;;;;;;;4.03;100.00;62413.22;5007416;28;20215;-80
2022/12/26 00:09:36;;;;;;;1.70;1.60;;;;;;;4.06;100.00;62416.81;5005639;28;20211;-77
2022/12/26 00:12:02;;;;;;;2.10;2.00;;;;;;;3.98;100.00;62413.09;5005722;28;20448;-77
2022/12/26 00:14:29;;;;;;;2.28;1.67;;;;;;;4.01;100.00;62414.19;5005460;28;20413;-77
2022/12/26 00:16:57;;;;;;;5.90;3.30;;;;;;;4.06;100.00;62418.81;5006085;28;20227;-77
2022/12/26 00:19:24;;;;;;;2.30;2.17;;;;;;;4.04;100.00;62414.25;4997973;28;20204;-77
2022/12/26 00:21:51;;;;;;;1.80;1.70;;;;;;;4.15;100.00;62430.59;4986181;28;20235;-78
2022/12/26 00:24:18;;;;;;;2.22;2.05;;;;;;;4.05;100.00;62417.78;5001473;28;20210;-77
2022/12/26 00:26:46;;;;;;;5.40;2.08;;;;;;;4.03;100.00;62418.25;5006638;28;20274;-77
2022/12/26 00:29:13;;;;;;;2.28;2.08;;;;;;;3.99;100.00;62409.09;5006194;28;20204;-78
2022/12/26 00:31:40;;;;;;;2.22;2.13;;;;;;;3.95;100.00;62404.97;5005852;28;20219;-78
2022/12/26 00:34:07;;;;;;;3.83;2.88;;;;;;;3.97;100.00;62407.03;5007918;28;20227;-77
2022/12/26 00:36:34;;;;;;;2.80;1.95;;;;;;;4.04;100.00;62417.25;5006700;28;20527;-77
2022/12/26 00:39:03;;;;;;;3.10;2.78;;;;;;;4.05;100.00;62417.78;5006038;28;20226;-77
2022/12/26 00:41:30;;;;;;;3.25;2.95;;;;;;;4.04;100.00;62416.75;5005996;28;20563;-78
2022/12/26 00:43:58;;;;;;;2.95;2.75;;;;;;;4.07;100.00;62414.81;5006099;28;20429;-77
2022/12/26 00:46:26;;;;;;;3.25;2.75;;;;;;;4.10;100.00;62420.41;5009906;28;20233;-77
2022/12/26 00:48:53;;;;;;;3.10;2.80;;;;;;;4.08;100.00;62418.34;5005682;28;20246;-77
2022/12/26 00:51:20;;;;;;;4.88;2.97;;;;;;;4.04;100.00;62416.75;5005366;28;20285;-78
2022/12/26 00:53:47;;;;;;;2.53;2.33;;;;;;;4.09;100.00;62417.38;5005700;28;20234;-77
2022/12/26 00:56:14;;;;;;;3.38;2.22;;;;;;;4.07;100.00;62420.34;5005787;28;20227;-78
2022/12/26 00:58:41;;;;;;;3.05;2.80;;;;;;;3.97;100.00;62412.59;5006447;28;20195;-77
2022/12/26 01:01:14;;;;;;;2.60;2.50;;;;;;;4.07;100.00;62419.84;5010115;28;20403;-77
2022/12/26 01:03:41;;;;;;;1.70;1.55;;;;;;;4.03;100.00;62418.25;5006130;28;20258;-77
2022/12/26 01:06:08;;;;;;;3.20;1.63;;;;;;;3.96;100.00;62408.53;5004832;28;20223;-78
2022/12/26 01:08:35;;;;;;;1.67;1.58;;;;;;;3.91;100.00;62403.38;5006105;28;20206;-77
2022/12/26 01:11:05;;;;;;;1.20;1.10;;;;;;;3.85;100.00;62394.69;5004909;28;20223;-78
2022/12/26 01:13:32;;;;;;;1.65;1.30;;;;;;;3.86;100.00;62396.25;5007221;28;20199;-77
2022/12/26 01:15:59;;;;;;;1.60;1.50;;;;;;;3.81;100.00;62388.59;5004605;28;20519;-77
2022/12/26 01:18:28;;;;;;;1.50;1.40;;;;;;;3.86;100.00;62396.25;5005094;28;20206;-77
2022/12/26 01:20:59;;;;;;;3.40;1.83;;;;;;;3.81;100.00;62388.06;5007075;28;20412;-77
2022/12/26 01:23:27;;;;;;;2.70;1.52;;;;;;;3.78;100.00;62390.00;5003578;28;20274;-76
2022/12/26 01:25:54;;;;;;;2.50;2.30;;;;;;;3.81;100.00;62393.09;5006346;28;20219;-77
2022/12/26 01:28:21;;;;;;;2.83;2.17;;;;;;;3.86;100.00;62400.75;5008074;28;20200;-77
2022/12/26 01:30:48;;;;;;;1.52;1.40;;;;;;;3.81;100.00;62393.63;5006866;28;20239;-78
2022/12/26 01:33:16;;;;;;;1.83;1.73;;;;;;;3.77;100.00;62391.50;5008474;28;20203;-77
2022/12/26 01:35:51;;;;;;;3.83;3.13;;;;;;;3.76;100.00;62387.97;5009581;28;20277;-78
2022/12/26 01:38:18;;;;;;;3.60;2.95;;;;;;;3.84;100.00;62393.66;5008576;28;20214;-77
2022/12/26 01:40:46;;;;;;;2.95;2.75;;;;;;;3.86;100.00;62395.72;5008177;28;20214;-77
2022/12/26 01:43:16;;;;;;;2.65;2.20;;;;;;;3.89;100.00;62396.28;5010600;28;20453;-76
2022/12/26 01:45:48;;;;;;;4.22;2.30;;;;;;;3.83;100.00;62392.63;5009340;28;20250;-78
2022/12/26 01:48:21;;;;;;;1.90;1.80;;;;;;;3.74;100.00;62383.91;5008423;28;20191;-77
2022/12/26 01:50:54;;;;;;;2.47;1.58;;;;;;;3.78;100.00;62387.50;5009161;28;20290;-77
2022/12/26 01:53:24;;;;;;;2.80;2.40;;;;;;;3.83;100.00;62395.16;5008077;28;20238;-77
2022/12/26 01:55:56;;;;;;;2.47;1.70;;;;;;;3.74;100.00;62385.91;5011824;28;20318;-77
2022/12/26 01:58:27;;;;;;;1.95;1.75;;;;;;;3.68;100.00;62377.19;5008222;28;20255;-77
2022/12/26 02:01:00;;;;;;;1.20;1.20;;;;;;;3.68;100.00;62377.19;5008711;28;20237;-79
2022/12/26 02:06:15;;;;;;;1.70;1.60;;;;;;;3.64;100.00;62378.13;5009190;28;20223;-78
2022/12/26 02:08:42;;;;;;;1.58;1.27;;;;;;;3.66;100.00;62377.69;5012552;28;20203;-77
2022/12/26 02:11:14;;;;;;;3.03;1.80;;;;;;;3.49;100.00;62361.22;5008613;28;20220;-77
2022/12/26 02:13:41;;;;;;;2.05;1.77;;;;;;;3.35;100.00;62351.84;5007717;28;20285;-77
2022/12/26 02:16:12;;;;;;;3.95;2.28;;;;;;;3.40;100.00;62351.97;5007151;28;20543;-77
2022/12/26 02:18:39;;;;;;;4.20;1.80;;;;;;;3.39;100.00;62348.41;4988356;28;20195;-77
2022/12/26 02:21:25;;;;;;;1.48;1.38;;;;;;;3.36;100.00;62342.81;4988547;28;20292;-77
2022/12/26 02:24:39;;;;;;;2.97;1.20;;;;;;;3.16;100.00;62324.75;5003818;28;20226;-78
2022/12/26 02:27:24;;;;;;;3.28;1.33;;;;;;;3.36;100.00;62347.84;5006935;28;20284;-78
2022/12/26 02:30:06;;;;;;;1.15;1.08;;;;;;;3.42;100.00;62354.00;5007706;28;20199;-78
2022/12/26 02:32:54;;;;;;;2.28;2.08;;;;;;;3.56;100.00;62367.91;5007232;28;20219;-77
2022/12/26 02:35:36;;;;;;;1.60;1.58;;;;;;;3.54;100.00;62366.34;5006977;28;20209;-76
2022/12/26 02:38:18;;;;;;;2.90;1.95;;;;;;;3.49;100.00;62358.69;5010344;28;20204;-77
2022/12/26 02:40:53;;;;;;;1.95;1.48;;;;;;;3.59;100.00;62373.00;5007685;28;20471;-77
2022/12/26 02:43:29;;;;;;;1.38;1.27;;;;;;;3.63;100.00;62370.06;5005791;28;20334;-77
2022/12/26 02:48:58;;;;;;;3.53;1.40;;;;;;;3.59;100.00;62367.97;5008296;28;20206;-77
2022/12/26 03:14:27;;;;;;;3.22;1.73;;;;;;;3.48;100.00;62354.63;5005643;28;20412;-78
2022/12/26 03:19:59;;;;;;;2.28;1.50;;;;;;;3.39;100.00;62348.41;5006472;28;20202;-78
2022/12/26 03:22:32;;;;;;;1.40;1.30;;;;;;;3.42;100.00;62356.53;5011559;28;20245;-77
2022/12/26 03:27:48;;;;;;;6.30;3.47;;;;;;;3.47;100.00;62361.66;5006269;28;20211;-78
2022/12/26 03:33:00;;;;;;;14.38;7.60;;;;;;;3.20;100.00;62328.88;5007219;28;20202;-78
2022/12/26 03:35:32;;;;;;;14.45;8.38;;;;;;;3.24;100.00;62333.00;5007401;28;20195;-77
2022/12/26 03:38:06;;;;;;;13.95;7.78;;;;;;;3.17;100.00;62330.84;5008675;28;20200;-77
2022/12/26 04:41:34;;;;;;;8.85;5.15;;;;;;;2.51;100.00;62262.47;4989748;28;20227;-76
2022/12/26 04:46:33;;;;;;;12.65;7.45;;;;;;;2.67;100.00;62274.41;5008012;28;20242;-78
2022/12/26 04:51:47;;;;;;;4.95;4.22;;;;;;;2.50;100.00;62256.44;5003950;28;20242;-78
2022/12/26 04:54:13;;;;;;;8.43;6.43;;;;;;;2.52;100.00;62261.50;5005116;28;20257;-78
2022/12/26 04:56:41;;;;;;;3.88;3.50;;;;;;;2.45;100.00;62251.81;5004788;28;20219;-78
2022/12/26 04:59:08;;;;;;;10.15;5.22;;;;;;;2.49;100.00;62258.44;5005911;28;20250;-77
2022/12/26 05:09:55;;;;;;;8.68;4.95;;;;;;;2.53;100.00;62257.00;4984432;28;20207;-76
2022/12/26 05:12:21;;;;;;;7.35;5.07;;;;;;;2.50;100.00;62256.44;5004899;28;20548;-79
2022/12/26 05:14:49;;;;;;;12.85;6.30;;;;;;;2.48;100.00;62252.38;5005743;28;20263;-77
2022/12/26 05:31:04;;;;;;;7.32;5.25;;;;;;;2.55;100.00;62264.09;5008551;28;20254;-78
2022/12/26 05:36:20;;;;;;;7.40;4.88;;;;;;;2.51;100.00;62255.47;4995939;28;20254;-78
2022/12/26 05:38:47;;;;;;;7.90;5.32;;;;;;;2.56;100.00;62263.13;4986869;28;20212;-78
2022/12/26 05:41:14;;;;;;;6.18;5.57;;;;;;;2.60;100.00;62266.72;4986584;28;20308;-76
2022/12/26 05:43:40;;;;;;;14.48;7.25;;;;;;;2.54;100.00;62261.06;4986100;28;20234;-77
2022/12/26 05:46:07;;;;;;;9.45;6.00;;;;;;;2.57;100.00;62264.16;5003165;28;20227;-78
2022/12/26 05:48:36;;;;;;;8.57;6.90;;;;;;;2.60;100.00;62272.25;5003834;28;20211;-78
2022/12/26 05:51:04;;;;;;;13.93;8.80;;;;;;;2.54;100.00;62261.06;5004514;28;20472;-77
2022/12/26 05:53:32;;;;;;;8.10;4.82;;;;;;;2.48;100.00;62257.41;5004337;28;20210;-78
2022/12/26 05:56:03;;;;;;;24.35;14.45;;;;;;;2.59;100.00;62266.19;5004557;28;20234;-78
2022/12/26 05:58:30;;;;;;;10.63;7.30;;;;;;;2.60;100.00;62269.22;5005276;28;20203;-79
2022/12/26 06:01:05;;;;;;;16.65;10.45;;;;;;;2.63;100.00;62269.78;5007056;28;20231;-79
2022/12/26 06:03:32;;;;;;;19.33;9.35;;;;;;;2.58;100.00;62267.69;5005112;28;20231;-78
2022/12/26 06:06:01;;;;;;;11.20;7.47;;;;;;;2.60;100.00;62267.22;5004082;28;20599;-78
2022/12/26 06:08:27;;;;;;;8.95;6.15;;;;;;;2.62;100.00;62266.78;5004643;28;20200;-77
2022/12/26 06:10:54;;;;;;;13.45;6.45;;;;;;;2.69;100.00;62273.44;5004612;28;20220;-77
2022/12/26 06:13:22;;;;;;;5.00;4.35;;;;;;;2.63;100.00;62272.81;5007529;28;20199;-77
2022/12/26 06:15:49;;;;;;;4.40;3.22;;;;;;;2.65;100.00;62274.34;5001516;28;20239;-78
2022/12/26 06:18:16;;;;;;;4.60;3.80;;;;;;;2.67;100.00;62276.41;5005521;28;20199;-78
2022/12/26 06:20:43;;;;;;;6.85;4.15;;;;;;;2.66;100.00;62277.91;5007990;28;20219;-78
2022/12/26 06:23:11;;;;;;;4.43;3.33;;;;;;;2.69;100.00;62280.97;5009128;28;20245;-77
2022/12/26 06:25:38;;;;;;;13.02;8.85;;;;;;;2.70;100.00;62276.97;5007956;28;20291;-78
2022/12/26 06:28:05;;;;;;;6.45;4.20;;;;;;;2.77;100.00;62284.16;5010545;28;20242;-78
2022/12/26 06:30:32;;;;;;;21.77;14.60;;;;;;;2.75;100.00;62279.59;5007633;28;20196;-78
2022/12/26 06:32:59;;;;;;;13.48;9.50;;;;;;;2.70;100.00;62279.50;5007026;28;20246;-78
2022/12/26 06:35:26;;;;;;;8.32;5.63;;;;;;;2.82;100.00;62289.81;5006299;28;20207;-78
2022/12/26 06:37:53;;;;;;;7.45;5.50;;;;;;;2.83;100.00;62287.84;5008426;28;20497;-78
2022/12/26 06:40:21;;;;;;;5.57;4.65;;;;;;;2.87;100.00;62294.44;5008118;28;20198;-80
2022/12/26 06:42:48;;;;;;;6.47;4.63;;;;;;;2.78;100.00;62290.75;5010059;28;20223;-78
2022/12/26 06:45:15;;;;;;;8.32;5.82;;;;;;;2.83;100.00;62290.84;5007792;28;20384;-77
2022/12/26 06:47:42;;;;;;;6.30;5.53;;;;;;;2.89;100.00;62297.03;5007529;28;20195;-77
2022/12/26 06:50:09;;;;;;;8.35;6.97;;;;;;;2.80;100.00;62290.28;5008520;28;20238;-77
2022/12/26 06:52:36;;;;;;;14.43;7.78;;;;;;;2.87;100.00;62294.44;5006706;28;20227;-77
2022/12/26 06:55:04;;;;;;;10.20;7.55;;;;;;;2.93;100.00;62298.63;5008058;28;20480;-77
2022/12/26 06:57:32;;;;;;;11.27;7.85;;;;;;;2.95;100.00;62302.69;5010088;28;20329;-78
2022/12/26 06:59:59;;;;;;;18.63;10.77;;;;;;;2.89;100.00;62299.00;5006841;28;20211;-78
2022/12/26 07:02:26;;;;;;;15.82;10.85;;;;;;;2.96;100.00;62306.72;5005710;28;20245;-77
2022/12/26 07:04:54;;;;;;;21.40;12.13;;;;;;;3.01;100.00;62313.88;5006828;28;20286;-78
2022/12/26 07:07:21;;;;;;;19.58;11.32;;;;;;;2.92;100.00;62300.09;5008276;28;20220;-79
2022/12/26 07:09:48;;;;;;;17.77;11.05;;;;;;;2.91;100.00;62301.59;5006841;28;20214;-77
2022/12/26 07:12:15;;;;;;;16.88;11.30;;;;;;;3.01;100.00;62308.84;5011952;28;20566;-78
2022/12/26 07:14:43;;;;;;;19.85;11.85;;;;;;;3.19;100.00;62332.88;5006906;28;20363;-77
2022/12/26 07:17:10;;;;;;;24.13;12.25;;;;;;;3.40;100.00;62346.41;5007016;28;20215;-78
2022/12/26 07:19:37;;;;;;;17.90;12.02;;;;;;;3.73;100.00;62384.88;5006627;28;20207;-78
2022/12/26 07:22:04;;;;;;;18.42;13.00;;;;;;;4.01;100.00;62414.19;5007852;28;20226;-78
2022/12/26 07:24:31;;;;;;;19.33;12.85;;;;;;;4.21;100.00;62439.28;5007507;28;20258;-77
2022/12/26 07:26:59;;;;;;;19.08;11.95;;;;;;;4.33;100.00;62446.59;5011480;28;20215;-79
2022/12/26 07:29:26;;;;;;;20.15;10.90;;;;;;;4.49;100.00;62460.53;5006257;28;20299;-78
2022/12/26 07:31:56;;;;;;;19.08;10.65;;;;;;;4.59;100.00;62471.34;5006460;28;20230;-78
2022/12/26 07:34:23;;;;;;;13.57;10.27;;;;;;;4.66;100.00;62480.56;5008148;28;20199;-79
2022/12/26 07:36:50;;;;;;;18.60;10.73;;;;;;;4.75;100.00;62487.31;5006950;28;20226;-77
2022/12/26 07:39:16;;;;;;;17.85;12.25;;;;;;;4.82;100.00;62494.50;5007882;28;20201;-78
2022/12/26 07:41:59;;;;;;;19.40;11.40;;;;;;;4.85;100.00;62499.63;5009287;28;20437;-78
2022/12/26 07:44:26;;;;;;;18.30;13.65;;;;;;;4.81;100.00;62498.00;5007269;28;20235;-78
2022/12/26 07:46:55;;;;;;;30.52;21.50;;;;;;;4.58;100.00;62469.81;4995508;28;20283;-77
2022/12/26 07:49:23;;;;;;;27.38;19.05;;;;;;;4.75;100.00;62484.78;4988878;28;20208;-77
2022/12/26 07:51:51;;;;;;;23.30;16.92;;;;;;;4.86;100.00;62498.63;4995261;28;20257;-77
2022/12/26 07:54:18;;;;;;;18.75;13.55;;;;;;;4.76;100.00;62487.81;5009209;28;20203;-78
2022/12/26 07:56:45;;;;;;;16.50;11.70;;;;;;;4.77;100.00;62486.84;5008384;28;20285;-78
2022/12/26 07:59:14;;;;;;;22.33;12.30;;;;;;;4.88;100.00;62505.22;5006686;28;20259;-77
2022/12/26 08:01:41;;;;;;;18.45;11.25;;;;;;;4.98;100.00;62513.50;5007012;28;20215;-77
2022/12/26 08:04:09;;;;;;;20.50;12.98;;;;;;;4.96;100.00;62508.41;5005964;28;20254;-78
2022/12/26 08:06:36;;;;;;;15.55;10.93;;;;;;;5.00;100.00;62512.53;5006681;28;20393;-78
2022/12/26 08:09:03;;;;;;;19.83;13.73;;;;;;;5.17;100.00;62533.06;5009403;28;20203;-78
2022/12/26 08:11:33;;;;;;;20.63;13.02;;;;;;;5.26;100.00;62541.84;5007830;28;20403;-78
2022/12/26 08:14:01;;;;;;;18.90;12.80;;;;;;;5.33;100.00;62549.03;5006343;28;20493;-78
2022/12/26 08:16:29;;;;;;;22.00;11.43;;;;;;;5.48;100.00;62567.00;5006891;28;20211;-77
2022/12/26 08:18:57;;;;;;;17.98;11.32;;;;;;;5.33;100.00;62549.53;5006807;28;20407;-78
2022/12/26 08:21:25;;;;;;;18.10;12.60;;;;;;;5.44;100.00;62563.41;5006698;28;20241;-78
2022/12/26 08:23:52;;;;;;;18.15;12.50;;;;;;;5.59;100.00;62573.81;5010775;28;20270;-78
2022/12/26 08:26:22;;;;;;;15.60;11.18;;;;;;;5.69;100.00;62588.66;5008049;28;20226;-78
2022/12/26 08:28:51;;;;;;;20.30;13.00;;;;;;;5.73;100.00;62593.28;5008877;28;20274;-78
2022/12/26 08:31:19;;;;;;;16.42;11.07;;;;;;;5.70;100.00;62584.63;5005574;28;20536;-78
2022/12/26 08:33:47;;;;;;;17.30;11.55;;;;;;;5.52;100.00;62568.63;5006564;28;20267;-78
2022/12/26 08:36:15;;;;;;;21.75;12.15;;;;;;;5.41;100.00;62557.78;5005839;28;20494;-77
2022/12/26 08:38:44;;;;;;;20.05;13.23;;;;;;;5.50;100.00;62566.56;5009594;28;20206;-78
2022/12/26 08:41:11;;;;;;;18.25;11.90;;;;;;;5.61;100.00;62575.34;5006805;28;20217;-77
2022/12/26 08:43:38;;;;;;;17.55;12.27;;;;;;;5.45;100.00;62561.91;5006756;28;20239;-77
2022/12/26 08:46:08;;;;;;;21.02;15.10;;;;;;;5.62;100.00;62579.44;5006615;28;20249;-79
2022/12/26 08:48:35;;;;;;;20.25;13.82;;;;;;;5.88;100.00;62605.72;5006275;28;20207;-78
2022/12/26 08:51:05;;;;;;;19.52;12.88;;;;;;;6.07;100.00;62622.25;5009887;28;20216;-78
2022/12/26 08:53:34;;;;;;;18.95;13.07;;;;;;;5.89;100.00;62604.22;5006743;28;20378;-77
2022/12/26 08:56:03;;;;;;;16.95;12.15;;;;;;;5.87;100.00;62602.16;5006544;28;20215;-78
2022/12/26 08:58:31;;;;;;;18.30;11.73;;;;;;;6.16;100.00;62634.56;5007141;28;20202;-77
2022/12/26 09:01:06;;;;;;;18.15;12.00;;;;;;;6.06;100.00;62626.31;5006377;28;20563;-78
2022/12/26 09:03:33;;;;;;;15.10;10.82;;;;;;;6.09;100.00;62627.34;5007028;28;20203;-78
2022/12/26 09:06:00;;;;;;;21.17;11.75;;;;;;;6.24;100.00;62637.78;5009860;28;20238;-78
2022/12/26 09:08:29;;;;;;;15.27;10.20;;;;;;;6.42;100.00;62660.88;5006190;28;20203;-78
2022/12/26 09:10:56;;;;;;;12.00;8.75;;;;;;;6.30;100.00;62643.97;5007363;28;20254;-77
2022/12/26 09:13:26;;;;;;;12.55;8.75;;;;;;;6.25;100.00;62643.34;5006221;28;20203;-77
2022/12/26 09:15:53;;;;;;;13.13;8.85;;;;;;;6.30;100.00;62651.53;5004957;28;20215;-78
2022/12/26 09:18:20;;;;;;;12.02;8.57;;;;;;;6.44;100.00;62658.41;5008736;28;20218;-78
2022/12/26 09:20:47;;;;;;;12.57;8.05;;;;;;;6.34;100.00;62653.16;5004914;28;20219;-78
2022/12/26 09:23:14;;;;;;;9.40;8.30;;;;;;;6.41;100.00;62659.84;4986736;28;20404;-78
2022/12/26 09:25:41;;;;;;;13.40;8.05;;;;;;;6.45;100.00;62666.50;4986879;28;20223;-79
2022/12/26 09:28:09;;;;;;;13.10;8.27;;;;;;;6.61;100.00;62680.97;4986791;28;20255;-79
2022/12/26 09:30:41;;;;;;;9.52;8.02;;;;;;;6.85;99.84;62708.25;4993557;28;20337;-77
2022/12/26 09:33:08;;;;;;;12.50;7.45;;;;;;;6.94;96.92;62711.97;5007815;28;20214;-77
2022/12/26 09:35:35;;;;;;;10.43;7.80;;;;;;;7.01;95.74;62721.72;5009939;28;20574;-77
2022/12/26 09:38:02;;;;;;;11.15;7.40;;;;;;;6.95;94.85;62720.59;5007815;28;20249;-78
2022/12/26 09:40:33;;;;;;;12.27;8.65;;;;;;;7.13;95.26;62736.13;5003159;28;20204;-79
2022/12/26 09:43:13;;;;;;;11.20;8.30;;;;;;;7.16;94.76;62734.16;5008208;28;20489;-78
2022/12/26 09:45:55;;;;;;;14.15;8.15;;;;;;;7.51;93.28;62773.31;5006315;28;20544;-78
2022/12/26 09:48:31;;;;;;;14.85;7.95;;;;;;;7.49;91.46;62771.25;5008055;28;20195;-78
2022/12/26 09:50:58;;;;;;;13.38;8.15;;;;;;;7.38;91.77;62754.84;5009413;28;20230;-77
2022/12/26 09:53:33;;;;;;;9.55;7.97;;;;;;;7.57;91.96;62777.00;5008314;28;20309;-78
2022/12/26 09:56:04;;;;;;;12.35;8.20;;;;;;;7.75;90.23;62795.03;5009558;28;20367;-77
2022/12/26 09:58:35;;;;;;;11.40;8.68;;;;;;;7.73;89.22;62790.97;5010020;28;20203;-78
2022/12/26 10:01:11;;;;;;;14.65;9.95;;;;;;;7.63;89.06;62782.66;5010380;28;20277;-78
2022/12/26 10:03:43;;;;;;;14.48;10.13;;;;;;;7.36;90.92;62755.31;5013089;28;20186;-78
2022/12/26 10:06:15;;;;;;;18.05;10.40;;;;;;;7.38;92.82;62759.91;5008425;28;20227;-78
2022/12/26 10:09:19;;;;;;;16.65;9.98;;;;;;;7.76;91.89;62793.53;5010528;28;20197;-77
2022/12/26 10:12:07;;;;;;;13.77;9.65;;;;;;;7.91;88.60;62814.63;5009687;28;20219;-77
2022/12/26 10:14:49;;;;;;;14.70;9.77;;;;;;;7.81;88.41;62803.78;5008240;28;20203;-79
2022/12/26 10:17:27;;;;;;;12.77;9.40;;;;;;;7.97;88.69;62815.22;5012380;28;20214;-79
2022/12/26 10:20:17;;;;;;;12.77;10.10;;;;;;;8.09;87.91;62830.66;5009955;28;20195;-78
2022/12/26 10:23:21;;;;;;;13.02;10.00;;;;;;;8.38;87.05;62860.13;5008850;28;20392;-78
2022/12/26 10:25:53;;;;;;;13.45;9.43;;;;;;;8.23;85.14;62847.16;4992526;28;20273;-78
2022/12/26 10:28:29;;;;;;;11.88;8.77;;;;;;;8.41;84.97;62865.75;4989418;28;20208;-78
2022/12/26 10:31:00;;;;;;;13.80;8.80;;;;;;;8.66;85.02;62893.63;4988037;28;20220;-78
2022/12/26 10:33:40;;;;;;;14.38;10.52;;;;;;;8.69;82.60;62892.16;4993205;28;20238;-76
2022/12/26 10:36:16;;;;;;;13.93;10.63;;;;;;;8.61;83.00;62885.91;5007994;28;20227;-79
2022/12/26 10:38:48;;;;;;;15.95;10.25;;;;;;;8.58;83.51;62882.78;5008962;28;20187;-77
2022/12/26 10:41:19;;;;;;;16.83;9.95;;;;;;;8.58;82.59;62885.84;5008300;28;20270;-77
2022/12/26 10:43:46;;;;;;;14.63;9.70;;;;;;;8.73;81.88;62901.34;5006458;28;20211;-77
2022/12/26 10:46:48;;;;;;;14.38;9.65;;;;;;;8.84;81.81;62907.66;5009037;28;20221;-77
2022/12/26 10:49:21;;;;;;;12.68;8.93;;;;;;;9.08;81.13;62935.00;5006675;28;20258;-77
2022/12/26 10:51:49;;;;;;;14.27;9.13;;;;;;;8.86;79.71;62909.19;5008105;28;20265;-79
2022/12/26 10:54:19;;;;;;;10.90;8.32;;;;;;;8.87;79.27;62915.31;5007872;28;20199;-79
2022/12/26 10:56:48;;;;;;;14.10;9.05;;;;;;;8.99;79.72;62928.22;5007610;28;20234;-80
2022/12/26 10:59:19;;;;;;;15.77;10.18;;;;;;;9.10;78.49;62939.59;5007597;28;20200;-77
2022/12/26 11:01:47;;;;;;;12.55;8.50;;;;;;;9.24;77.50;62954.06;5010502;28;20219;-77
2022/12/26 11:04:22;;;;;;;11.02;8.13;;;;;;;9.11;77.66;62943.16;5007343;28;20234;-79
2022/12/26 11:06:51;;;;;;;11.05;8.65;;;;;;;8.87;78.24;62912.78;5008053;28;20290;-77
2022/12/26 11:09:40;;;;;;;14.05;9.05;;;;;;;9.16;78.89;62937.66;5008931;28;20250;-77
2022/12/26 11:12:20;;;;;;;10.00;7.65;;;;;;;9.34;76.47;62961.88;5007049;28;20398;-76
2022/12/26 11:14:48;;;;;;;9.18;7.00;;;;;;;9.29;77.02;62954.16;5007629;28;20184;-78
2022/12/26 11:17:25;;;;;;;8.73;6.55;;;;;;;9.51;75.19;62984.00;5009684;28;20255;-78
2022/12/26 11:20:26;;;;;;;9.32;5.97;;;;;;;9.67;74.77;62992.41;5006583;28;20203;-78
2022/12/26 11:22:53;;;;;;;9.07;5.85;;;;;;;9.74;72.46;63002.72;5006398;28;20219;-79
2022/12/26 11:25:23;;;;;;;7.13;5.00;;;;;;;9.82;72.21;63010.47;5007559;28;20270;-78
2022/12/26 11:27:52;;;;;;;9.02;5.80;;;;;;;9.89;71.25;63015.16;5007646;28;20214;-77
2022/12/26 11:30:33;;;;;;;7.75;5.05;;;;;;;9.92;69.35;63018.78;5010533;28;20214;-78
2022/12/26 11:33:24;;;;;;;6.00;5.25;;;;;;;9.68;70.77;62996.50;5006608;28;20251;-78
2022/12/26 11:35:58;;;;;;;7.55;5.55;;;;;;;9.65;71.76;63001.03;5005204;28;20289;-77
2022/12/26 11:38:38;;;;;;;8.18;6.05;;;;;;;9.71;72.69;62999.09;5008663;28;20203;-79
2022/12/26 11:43:57;;;;;;;7.00;6.03;;;;;;;9.76;71.92;63004.78;4990327;28;20191;-78
2022/12/26 11:46:35;;;;;;;7.82;6.13;;;;;;;9.77;71.01;63005.81;4998765;28;20254;-77
2022/12/26 11:49:02;;;;;;;7.05;6.03;;;;;;;9.62;72.50;62987.75;5008903;28;20211;-79
2022/12/26 11:51:40;;;;;;;8.02;5.90;;;;;;;9.86;71.39;63012.06;5010351;28;20225;-79
2022/12/26 11:54:21;;;;;;;9.43;5.57;;;;;;;10.01;70.74;63032.69;5006743;28;20258;-79
2022/12/26 11:56:59;;;;;;;7.32;6.07;;;;;;;9.82;69.88;63013.53;4990086;28;20220;-80
2022/12/26 11:59:26;;;;;;;5.07;3.92;;;;;;;9.96;68.39;63022.94;4988143;28;20243;-78
2022/12/26 12:02:24;;;;;;;6.00;4.57;;;;;;;9.87;66.99;63013.09;4999072;28;20246;-78
2022/12/26 12:04:53;;;;;;;4.35;3.65;;;;;;;9.82;65.71;63008.44;5008175;28;20231;-80
2022/12/26 12:07:43;;;;;;;8.93;4.22;;;;;;;9.84;66.87;63010.00;5006914;28;20269;-78
2022/12/26 12:10:46;;;;;;;5.25;4.43;;;;;;;9.94;66.05;63020.84;5011350;28;20190;-78
2022/12/26 12:13:25;;;;;;;5.72;3.55;;;;;;;10.06;67.05;63035.31;5006662;28;20254;-80
2022/12/26 12:15:57;;;;;;;4.65;3.67;;;;;;;10.17;65.31;63044.16;5007414;28;20245;-78
2022/12/26 12:18:37;;;;;;;4.00;3.13;;;;;;;10.20;63.82;63047.25;5008945;28;20195;-80
2022/12/26 12:21:19;;;;;;;3.00;2.80;;;;;;;10.20;63.73;63052.88;5006204;28;20282;-79
2022/12/26 12:24:04;;;;;;;4.25;3.35;;;;;;;10.26;63.36;63056.00;4988547;28;20207;-78
2022/12/26 12:26:36;;;;;;;4.38;2.55;;;;;;;10.29;62.69;63059.09;4996473;28;20239;-77
2022/12/26 12:29:25;;;;;;;4.38;2.80;;;;;;;10.17;62.52;63047.22;5007634;28;20196;-79
2022/12/26 12:32:07;;;;;;;4.82;3.28;;;;;;;10.09;62.51;63038.94;5008974;28;20225;-78
2022/12/26 12:34:53;;;;;;;2.97;2.75;;;;;;;10.09;63.57;63038.44;5007749;28;20238;-79
2022/12/26 12:37:33;;;;;;;4.18;3.20;;;;;;;10.19;64.07;63048.78;5006607;28;20222;-78
2022/12/26 12:40:16;;;;;;;4.32;3.15;;;;;;;10.13;65.28;63045.63;5007063;28;20561;-77
2022/12/26 12:42:57;;;;;;;6.05;4.07;;;;;;;9.75;66.01;63005.78;5008794;28;20230;-79
2022/12/26 12:45:28;;;;;;;5.88;2.90;;;;;;;9.73;66.88;63006.78;5006616;28;20219;-79
2022/12/26 12:48:14;;;;;;;6.70;3.33;;;;;;;9.91;67.09;63022.31;5006932;28;20214;-78
2022/12/26 12:50:48;;;;;;;3.33;2.70;;;;;;;10.02;66.55;63033.72;4994845;28;20270;-77
2022/12/26 12:53:26;;;;;;;4.50;3.22;;;;;;;10.20;65.52;63047.25;5005995;28;20482;-78
2022/12/26 12:56:12;;;;;;;3.72;3.28;;;;;;;10.24;64.72;63054.47;5009099;28;20223;-79
2022/12/26 12:58:46;;;;;;;5.28;4.18;;;;;;;10.33;64.35;63058.16;5007184;28;20183;-78
2022/12/26 13:01:18;;;;;;;5.68;4.13;;;;;;;10.41;64.15;63074.06;5006479;28;20262;-78
2022/12/26 13:03:54;;;;;;;5.93;3.70;;;;;;;10.51;63.12;63081.88;5006588;28;20187;-78
2022/12/26 13:06:29;;;;;;;3.85;3.35;;;;;;;10.51;62.81;63083.91;5006705;28;20238;-79
2022/12/26 13:09:01;;;;;;;3.78;3.33;;;;;;;10.53;62.53;63078.84;5006256;28;20477;-77
2022/12/26 13:11:34;;;;;;;5.03;3.20;;;;;;;10.46;62.55;63076.69;5008821;28;20248;-77
2022/12/26 13:14:06;;;;;;;4.18;3.45;;;;;;;10.48;62.76;63078.78;5008700;28;20230;-78
2022/12/26 13:16:42;;;;;;;7.45;3.35;;;;;;;10.40;62.85;63071.03;5007844;28;20408;-79
2022/12/26 13:19:26;;;;;;;3.78;3.47;;;;;;;10.40;62.80;63065.41;4989575;28;20211;-77
2022/12/26 13:21:58;;;;;;;9.00;6.35;;;;;;;10.32;63.57;63067.81;4989393;28;20224;-78
2022/12/26 13:24:32;;;;;;;7.20;4.90;;;;;;;10.29;63.96;63062.19;4991734;28;20540;-78
2022/12/26 13:27:06;;;;;;;6.13;4.15;;;;;;;10.12;64.65;63044.06;5000817;28;20285;-78
2022/12/26 13:29:39;;;;;;;5.30;3.75;;;;;;;10.01;65.14;63033.19;5011288;28;20217;-79
2022/12/26 13:32:18;;;;;;;7.03;3.92;;;;;;;10.01;65.20;63028.09;5012097;28;20223;-78
2022/12/26 13:34:45;;;;;;;6.82;4.40;;;;;;;9.91;66.72;63019.78;5012510;28;20202;-78
2022/12/26 13:37:53;;;;;;;5.13;4.30;;;;;;;9.76;68.21;63007.34;5012114;28;20586;-78
2022/12/26 13:40:23;;;;;;;5.88;4.95;;;;;;;9.48;71.03;62977.84;5015966;28;20191;-78
2022/12/26 13:45:55;;;;;;;9.45;5.05;;;;;;;9.24;73.40;62951.00;5012342;28;20262;-78
2022/12/26 13:48:55;;;;;;;8.35;4.45;;;;;;;9.18;73.19;62944.81;5010493;28;20195;-79
2022/12/26 13:51:50;;;;;;;4.53;4.10;;;;;;;8.95;75.73;62921.56;5010736;28;20614;-78
2022/12/26 13:54:19;;;;;;;4.25;3.85;;;;;;;8.77;77.19;62897.88;4974281;28;20204;-78
2022/12/26 13:57:28;;;;;;;6.10;4.07;;;;;;;8.64;77.93;62889.00;5012454;28;20219;-78
2022/12/26 14:00:04;;;;;;;6.85;4.03;;;;;;;8.50;80.41;62875.06;5011215;28;20250;-78
2022/12/26 14:03:02;;;;;;;4.13;3.63;;;;;;;8.43;80.92;62865.28;5009311;28;20214;-78
2022/12/26 14:05:37;;;;;;;7.60;3.88;;;;;;;8.31;81.76;62849.84;5010011;28;20223;-79
2022/12/26 14:08:13;;;;;;;5.47;4.35;;;;;;;8.21;82.55;62840.53;5011458;28;20203;-80